Flugwetter

METAR EDDW
2022/12/08 21:50 EDDW 082150Z AUTO 21002KT 6000 OVC020 M00/M01 Q1007
TAF EDDW
2022/12/08 18:27 TAF TAF EDDW 081700Z 0818/0918 VRB01KT 9999 FEW015 TEMPO 0818/0821 2000 BCFG PROB30 TEMPO 0818/0821 0700 FZFG BECMG 0821/0823 0800 FZFG PROB30 TEMPO 0823/0908 0200 BKN001 BECMG 0908/0910 3500 BR BECMG 0910/0912 8000
METAR EDDH
2022/12/08 21:50 EDDH 082150Z AUTO 22005KT 0350 0300 R23/0325N R15/0600N FZFG FEW002 SCT020 M02/M02 Q1007 TEMPO 1000 BR BKN002
TAF EDDH
2022/12/08 20:13 TAF AMD EDDH 082004Z 0820/0924 21004KT 6000 FEW006 TEMPO 0820/0824 0600 FZFG BECMG 0822/0901 1200 BR BKN003 PROB40 TEMPO 0900/0910 0500 FZFG BKN001 BECMG 0902/0904 15005KT BECMG 0905/0907 3500 BECMG 0910/0912 7000 BKN008 BECMG 0917/0919 BKN011
METAR VRMM
2022/12/08 21:00 VRMM 082100Z 29013KT 9999 SCT017TCU BKN120 27/25 Q1008 TEMPO 5000 SHRA
TAF VRMM
2022/12/08 18:45 TAF VRMM 081700Z 0818/0924 27016KT 9999 SCT016TCU BKN110 TEMPO 0818/0824 27020G32KT 4000 TSRA SCT016CB

Quelle:

Bereitgestellt von den Servern der NOAA tgftp.nws.noaa.gov
Alle Angaben ohne Gewähr